Terminal Aerodrome Forecast
Issued by NWS Sterling, VA

Current Version | Previous Version | Text Only | Print | Product List | Glossary Off
Versions: 1 2 3 4 5 6 7 8 9 10 11 12 13 14 15 16 17 18 19 20 21 22 23 24 25 26 27 28

074
FTUS41 KLWX 270842 AAA
TAFDCA
TAF AMD
KDCA 270842Z 2709/2806 10003KT 2SM BR OVC003
     FM271000 18007KT 3SM -DZ BR OVC008
     FM271200 19007KT P6SM BKN008
     FM271300 20008KT P6SM BKN010
     FM271600 21009KT P6SM BKN025
     FM271900 22009KT P6SM BKN050
     FM272300 18006KT P6SM BKN050=

USA.gov is the U.S. government's official web portal to all federal, state and local government web resources and services.